createdAt,value
2024-05-09T00:06:34.776Z,10.1
2024-05-09T00:26:35.224Z,9.9
2024-05-09T00:46:35.584Z,9.7
2024-05-09T00:56:35.802Z,9.7
2024-05-09T01:06:35.976Z,9.6
2024-05-09T01:16:36.214Z,9.5
2024-05-09T01:26:36.376Z,9.3
2024-05-09T01:36:36.571Z,9.4
2024-05-09T01:46:36.771Z,9.1
2024-05-09T02:06:37.179Z,8.9
2024-05-09T02:16:37.413Z,8.8
2024-05-09T02:26:37.605Z,8.8
2024-05-09T02:46:37.979Z,8.7
2024-05-09T02:56:38.220Z,8.6
2024-05-09T03:06:38.381Z,8.6
2024-05-09T03:16:38.589Z,8.3
2024-05-09T03:26:38.883Z,8.3
2024-05-09T03:36:38.996Z,8.2
2024-05-09T03:46:39.199Z,8.1
2024-05-09T03:56:39.435Z,8.1
2024-05-09T04:06:39.608Z,8.1
2024-05-09T04:16:39.805Z,8
2024-05-09T04:26:40.032Z,8
2024-05-09T04:36:42.462Z,8
2024-05-09T04:46:40.489Z,8.1
2024-05-09T04:56:40.668Z,8.2
2024-05-09T05:06:40.874Z,8.4
2024-05-09T05:16:41.034Z,8.7
2024-05-09T05:26:41.279Z,9
2024-05-09T05:36:41.457Z,9.3
2024-05-09T05:46:41.705Z,9.7
2024-05-09T05:56:41.937Z,10.4
2024-05-09T06:16:42.258Z,11.6
2024-05-09T06:26:42.553Z,12.1
2024-05-09T06:36:42.654Z,12.5
2024-05-09T06:46:42.919Z,13.2
2024-05-09T06:56:43.115Z,13.4
2024-05-09T07:06:43.241Z,13.7
2024-05-09T07:26:43.724Z,14.5
2024-05-09T07:47:14.006Z,14.6
2024-05-09T09:06:45.642Z,17.3
2024-05-09T09:16:45.818Z,17.4
2024-05-09T09:26:46.042Z,17.9
2024-05-09T09:36:46.221Z,18.4
2024-05-09T09:46:46.421Z,18.5
2024-05-09T09:56:46.613Z,18.8
2024-05-09T10:06:46.808Z,18.7
2024-05-09T10:16:46.997Z,19
2024-05-09T10:26:47.199Z,19.1
2024-05-09T10:36:47.429Z,18.8
2024-05-09T10:46:47.659Z,18.3
2024-05-09T10:56:47.783Z,18.8
2024-05-09T11:06:48.000Z,18.8
2024-05-09T11:16:48.179Z,18.5
2024-05-09T11:26:48.383Z,19.3
2024-05-09T11:36:48.634Z,19.6
2024-05-09T11:46:48.786Z,19.9
2024-05-09T11:56:48.970Z,20.7
2024-05-09T12:06:49.212Z,20.9
2024-05-09T12:16:49.431Z,20.4
2024-05-09T12:26:49.546Z,20.4
2024-05-09T12:36:49.756Z,20.2
2024-05-09T12:46:49.937Z,21.1
2024-05-09T13:06:50.336Z,20.9
2024-05-09T13:16:50.543Z,20.8
2024-05-09T13:26:50.718Z,21
2024-05-09T13:36:50.938Z,21.2
2024-05-09T13:46:51.202Z,21.2
2024-05-09T13:56:51.311Z,21.6
2024-05-09T14:06:51.545Z,22
2024-05-09T14:16:51.750Z,21.5
2024-05-09T14:26:51.906Z,21.4
2024-05-09T14:46:52.332Z,21.7
2024-05-09T15:06:52.727Z,21.6
2024-05-09T15:26:53.074Z,20.7
2024-05-09T15:46:53.461Z,20.1
2024-05-09T16:06:53.895Z,19.8
2024-05-09T16:26:54.250Z,19.7
2024-05-09T16:46:54.672Z,19.7
2024-05-09T17:06:55.099Z,19.6
2024-05-09T17:26:55.430Z,19.6
2024-05-09T17:56:56.014Z,19
2024-05-09T18:06:56.232Z,18.9
2024-05-09T18:16:56.409Z,18.7
2024-05-09T18:26:56.724Z,18.4
2024-05-09T18:46:57.030Z,17.9
2024-05-09T18:56:57.191Z,17.5
2024-05-09T19:06:57.407Z,17.2
2024-05-09T19:26:57.804Z,16.6
2024-05-09T19:36:58.017Z,16.3
2024-05-09T19:46:58.223Z,15.9
2024-05-09T19:56:58.378Z,15.6
2024-05-09T20:06:58.639Z,15.3
2024-05-09T20:16:58.786Z,15.2
2024-05-09T20:26:58.987Z,15.1
2024-05-09T20:36:59.219Z,15
2024-05-09T20:46:59.377Z,14.9
2024-05-09T20:56:59.584Z,14.6
2024-05-09T21:06:59.863Z,14.3
2024-05-09T21:17:00.058Z,13.9
2024-05-09T21:37:00.451Z,13.4
2024-05-09T21:47:00.679Z,13.3
2024-05-09T21:57:00.760Z,13.1
2024-05-09T22:07:00.956Z,12.9
2024-05-09T22:17:01.236Z,12.8
2024-05-09T22:27:01.362Z,12.5
2024-05-09T22:37:01.695Z,12.1
2024-05-09T22:47:01.794Z,11.8
2024-05-09T22:57:01.967Z,11.7
2024-05-09T23:07:02.283Z,11.6
2024-05-09T23:17:02.417Z,11.6
2024-05-09T23:27:02.566Z,11.6
2024-05-09T23:37:02.808Z,11.3
2024-05-09T23:47:03.092Z,11.1
2024-05-09T23:57:03.189Z,11
